You are not logged in, Click here to log in
迈尔斯堡西南佛罗里达国际机场 RSW / KRSW 美国佛罗里达州利县迈尔斯堡以南约16公里处的一座民用机场,归利县政府所有,并由利县港务局运营管理
ICAO: KRSW Country: 美国佛罗里达州利县迈尔斯堡以南约16公里处的一座民用机场,归利县政府所有,并由利县港务局运营管理
Latitude: 26.5362 Longitude: -81.7552
Total Arrivals: 3 Total Departures: 3
Latest Arrival: JX1260 (KDCA-KRSW)ALAN. LIU Latest Departure: CI1261 (KRSW-MMUN)ALAN. LIU
Scenery:
METAR : KRSW 080253Z 04004KT 10SM OVC090 21/11 A3015 RMK AO2 SLP206 T02060111 51005

迈尔斯堡西南佛罗里达国际机场 RSW